createdAt,value
2018-10-18T00:01:41.527Z,10.77
2018-10-18T00:04:17.752Z,10.72
2018-10-18T00:06:54.241Z,11.10
2018-10-18T00:09:29.973Z,11.30
2018-10-18T00:12:05.785Z,13.05
2018-10-18T00:14:41.749Z,12.47
2018-10-18T00:17:22.000Z,11.50
2018-10-18T00:19:57.760Z,12.30
2018-10-18T00:22:33.462Z,11.17
2018-10-18T00:25:09.900Z,13.40
2018-10-18T00:27:45.732Z,12.23
2018-10-18T00:30:21.554Z,12.03
2018-10-18T00:32:57.241Z,12.70
2018-10-18T00:39:00.559Z,13.60
2018-10-18T00:41:36.572Z,12.33
2018-10-18T00:44:12.574Z,13.00
2018-10-18T00:46:53.201Z,13.15
2018-10-18T00:49:29.345Z,12.60
2018-10-18T00:52:05.449Z,13.88
2018-10-18T00:54:41.569Z,13.32
2018-10-18T00:57:17.551Z,14.55
2018-10-18T00:59:53.369Z,15.93
2018-10-18T01:02:29.753Z,14.63
2018-10-18T01:05:06.751Z,16.20
2018-10-18T01:07:42.391Z,15.00
2018-10-18T01:10:18.601Z,14.33
2018-10-18T01:12:54.509Z,15.10
2018-10-18T01:15:30.579Z,16.53
2018-10-18T01:18:06.556Z,14.90
2018-10-18T01:20:43.077Z,14.90
2018-10-18T01:23:18.758Z,15.18
2018-10-18T01:25:54.652Z,15.50
2018-10-18T01:28:30.254Z,15.07
2018-10-18T01:31:06.635Z,15.18
2018-10-18T01:33:42.607Z,14.60
2018-10-18T01:36:18.959Z,15.50
2018-10-18T01:38:54.859Z,15.05
2018-10-18T01:41:30.604Z,16.52
2018-10-18T01:44:06.860Z,17.35
2018-10-18T01:46:43.337Z,15.58
2018-10-18T01:49:19.802Z,16.00
2018-10-18T01:51:55.416Z,15.88
2018-10-18T01:54:30.862Z,15.57
2018-10-18T01:57:06.868Z,15.40
2018-10-18T02:01:48.868Z,16.45
2018-10-18T02:04:25.018Z,16.45
2018-10-18T02:07:01.593Z,17.30
2018-10-18T02:09:37.488Z,16.40
2018-10-18T02:12:13.462Z,17.00
2018-10-18T02:14:49.797Z,15.17
2018-10-18T02:17:25.519Z,20.50
2018-10-18T02:20:01.618Z,18.75
2018-10-18T02:22:37.602Z,19.47
2018-10-18T02:25:13.593Z,16.23
2018-10-18T02:27:49.722Z,20.20
2018-10-18T02:30:25.942Z,20.00
2018-10-18T02:33:02.203Z,17.37
2018-10-18T02:35:37.769Z,25.43
2018-10-18T02:38:13.624Z,20.70
2018-10-18T02:40:49.801Z,22.73
2018-10-18T02:43:25.568Z,18.90
2018-10-18T02:46:01.946Z,17.90
2018-10-18T02:48:37.728Z,18.67
2018-10-18T02:51:13.672Z,24.87
2018-10-18T02:53:49.574Z,18.95
2018-10-18T02:56:25.638Z,23.47
2018-10-18T02:59:01.769Z,24.73
2018-10-18T03:01:38.160Z,24.23
2018-10-18T03:04:14.231Z,23.30
2018-10-18T03:06:50.574Z,17.23
2018-10-18T03:09:26.812Z,18.00
2018-10-18T03:12:03.008Z,18.65
2018-10-18T03:14:38.618Z,18.63
2018-10-18T03:17:15.197Z,14.95
2018-10-18T03:19:51.421Z,24.00
2018-10-18T03:22:27.591Z,21.83
2018-10-18T03:25:03.628Z,24.90
2018-10-18T03:27:40.018Z,22.20
2018-10-18T03:30:16.501Z,17.55
2018-10-18T03:32:52.806Z,19.30
2018-10-18T03:35:29.021Z,15.30
2018-10-18T03:38:05.209Z,15.75
2018-10-18T03:40:41.484Z,19.10
2018-10-18T03:43:17.811Z,19.87
2018-10-18T03:45:54.043Z,17.17
2018-10-18T03:48:30.045Z,19.80
2018-10-18T03:51:06.541Z,15.65
2018-10-18T03:53:42.818Z,18.12
2018-10-18T03:56:18.817Z,16.70
2018-10-18T03:58:54.915Z,13.90
2018-10-18T04:01:31.016Z,15.67
2018-10-18T04:04:07.422Z,18.10
2018-10-18T04:06:43.825Z,18.52
2018-10-18T04:09:20.140Z,18.10
2018-10-18T04:11:56.648Z,15.45
2018-10-18T04:14:33.211Z,14.70
2018-10-18T04:17:09.650Z,18.07
2018-10-18T04:19:46.006Z,15.60
2018-10-18T04:22:22.652Z,15.72
2018-10-18T04:24:58.848Z,16.80
2018-10-18T04:27:35.262Z,14.60
2018-10-18T04:30:11.734Z,17.80
2018-10-18T04:32:47.768Z,18.07
2018-10-18T04:35:24.327Z,14.40
2018-10-18T04:38:00.818Z,14.78
2018-10-18T04:40:37.307Z,15.10
2018-10-18T04:43:13.643Z,18.07
2018-10-18T04:45:49.642Z,19.67
2018-10-18T04:48:25.862Z,14.43
2018-10-18T04:51:02.648Z,15.48
2018-10-18T04:53:39.468Z,15.38
2018-10-18T04:56:17.942Z,15.13
2018-10-18T04:58:53.626Z,15.57
2018-10-18T05:01:29.529Z,15.95
2018-10-18T05:04:05.501Z,16.73
2018-10-18T05:06:41.115Z,16.33
2018-10-18T05:09:17.013Z,15.05
2018-10-18T05:11:52.841Z,14.63
2018-10-18T05:14:30.292Z,14.37
2018-10-18T05:17:06.338Z,14.75
2018-10-18T05:19:42.301Z,14.60
2018-10-18T05:22:18.432Z,14.35
2018-10-18T05:24:53.882Z,13.70
2018-10-18T05:27:29.784Z,15.23
2018-10-18T05:30:05.567Z,15.20
2018-10-18T05:32:41.513Z,14.00
2018-10-18T05:35:17.666Z,14.60
2018-10-18T05:37:53.762Z,14.75
2018-10-18T05:40:30.843Z,14.40
2018-10-18T05:43:06.743Z,14.80
2018-10-18T05:45:42.970Z,14.20
2018-10-18T05:48:19.609Z,14.73
2018-10-18T05:50:55.614Z,14.97
2018-10-18T05:53:31.712Z,15.07
2018-10-18T05:56:08.061Z,14.00
2018-10-18T05:58:43.834Z,14.07
2018-10-18T06:01:26.842Z,13.93
2018-10-18T06:04:02.586Z,13.10
2018-10-18T06:06:39.666Z,14.05
2018-10-18T06:09:21.431Z,13.62
2018-10-18T06:11:57.058Z,13.75
2018-10-18T06:14:33.271Z,13.80
2018-10-18T06:17:09.620Z,13.67
2018-10-18T06:19:46.068Z,13.30
2018-10-18T06:22:23.066Z,13.53
2018-10-18T06:24:59.466Z,14.23
2018-10-18T06:27:35.682Z,14.15
2018-10-18T06:30:14.710Z,13.68
2018-10-18T06:32:51.853Z,13.90
2018-10-18T06:35:28.317Z,13.80
2018-10-18T06:38:05.597Z,13.98
2018-10-18T06:40:41.702Z,13.65
2018-10-18T06:43:18.946Z,13.85
2018-10-18T06:45:55.126Z,14.23
2018-10-18T06:48:31.442Z,13.35
2018-10-18T06:51:07.857Z,13.85
2018-10-18T06:53:44.816Z,13.10
2018-10-18T06:56:21.265Z,13.88
2018-10-18T06:58:57.703Z,13.57
2018-10-18T07:01:34.610Z,13.83
2018-10-18T07:04:11.047Z,13.30
2018-10-18T07:07:59.886Z,13.57
2018-10-18T07:10:36.070Z,13.00
2018-10-18T07:13:12.075Z,12.60
2018-10-18T07:15:48.705Z,14.63
2018-10-18T07:18:25.174Z,13.73
2018-10-18T07:21:01.607Z,17.35
2018-10-18T07:23:37.693Z,14.50
2018-10-18T07:26:13.873Z,13.25
2018-10-18T07:28:49.665Z,13.97
2018-10-18T07:31:25.833Z,14.25
2018-10-18T07:34:01.727Z,14.10
2018-10-18T07:36:37.893Z,14.47
2018-10-18T07:39:17.322Z,14.57
2018-10-18T07:41:53.946Z,13.93
2018-10-18T07:44:31.512Z,14.00
2018-10-18T07:47:08.201Z,14.63
2018-10-18T07:49:43.933Z,14.00
2018-10-18T07:52:20.073Z,15.23
2018-10-18T07:54:56.215Z,14.05
2018-10-18T07:57:32.621Z,13.83
2018-10-18T08:00:09.952Z,13.50
2018-10-18T08:02:46.888Z,13.13
2018-10-18T08:05:22.897Z,12.98
2018-10-18T08:08:00.089Z,13.47
2018-10-18T08:10:36.338Z,12.98
2018-10-18T08:13:12.377Z,13.83
2018-10-18T08:15:49.075Z,13.53
2018-10-18T08:18:25.473Z,13.32
2018-10-18T08:21:01.478Z,14.30
2018-10-18T08:23:38.179Z,13.23
2018-10-18T08:26:14.073Z,13.43
2018-10-18T08:28:50.075Z,13.90
2018-10-18T08:31:26.836Z,13.10
2018-10-18T08:34:03.609Z,13.60
2018-10-18T08:36:40.098Z,13.60
2018-10-18T08:39:15.946Z,12.97
2018-10-18T08:41:52.366Z,13.33
2018-10-18T08:44:29.203Z,13.70
2018-10-18T08:47:05.552Z,13.65
2018-10-18T08:49:42.489Z,13.63
2018-10-18T08:52:18.724Z,13.47
2018-10-18T08:54:54.709Z,13.10
2018-10-18T08:57:31.820Z,12.63
2018-10-18T09:00:08.648Z,12.80
2018-10-18T09:02:45.381Z,12.43
2018-10-18T09:05:21.860Z,12.98
2018-10-18T09:07:58.125Z,12.45
2018-10-18T09:10:34.176Z,12.25
2018-10-18T09:13:10.603Z,11.97
2018-10-18T09:15:46.675Z,12.60
2018-10-18T09:18:23.387Z,12.07
2018-10-18T09:20:59.669Z,12.28
2018-10-18T09:23:35.974Z,11.80
2018-10-18T09:26:12.398Z,12.75
2018-10-18T09:28:48.917Z,12.60
2018-10-18T09:31:24.743Z,12.60
2018-10-18T09:34:00.735Z,12.50
2018-10-18T09:36:36.717Z,12.70
2018-10-18T09:39:13.546Z,12.30
2018-10-18T09:41:49.909Z,11.45
2018-10-18T09:44:26.018Z,12.30
2018-10-18T09:47:02.202Z,11.63
2018-10-18T09:49:37.924Z,11.50
2018-10-18T09:52:13.697Z,12.00
2018-10-18T09:54:49.741Z,11.23
2018-10-18T09:57:25.949Z,11.88
2018-10-18T10:00:03.696Z,11.87
2018-10-18T10:02:44.089Z,11.93
2018-10-18T10:05:20.227Z,11.60
2018-10-18T10:07:56.594Z,12.07
2018-10-18T10:10:32.941Z,14.53
2018-10-18T10:13:09.797Z,12.35
2018-10-18T10:15:46.514Z,11.55
2018-10-18T10:18:23.397Z,14.55
2018-10-18T10:20:59.767Z,11.43
2018-10-18T10:23:36.119Z,11.15
2018-10-18T10:26:12.532Z,12.00
2018-10-18T10:28:48.376Z,11.38
2018-10-18T10:31:24.486Z,10.80
2018-10-18T10:34:00.748Z,10.60
2018-10-18T10:36:36.940Z,11.43
2018-10-18T10:39:13.820Z,12.00
2018-10-18T10:41:50.099Z,10.63
2018-10-18T10:44:26.598Z,11.00
2018-10-18T10:47:02.769Z,11.17
2018-10-18T10:49:38.781Z,10.75
2018-10-18T10:52:15.022Z,10.75
2018-10-18T10:54:51.752Z,11.00
2018-10-18T10:57:27.963Z,11.40
2018-10-18T11:00:03.801Z,10.23
2018-10-18T11:02:39.753Z,10.07
2018-10-18T11:05:16.128Z,10.63
2018-10-18T11:07:51.952Z,10.33
2018-10-18T11:10:37.152Z,10.68
2018-10-18T11:13:24.351Z,10.80
2018-10-18T11:16:04.924Z,10.23
2018-10-18T11:18:47.754Z,11.05
2018-10-18T11:21:24.263Z,10.18
2018-10-18T11:24:00.536Z,10.40
2018-10-18T11:26:37.132Z,10.53
2018-10-18T11:29:13.455Z,10.65
2018-10-18T11:31:51.230Z,10.15
2018-10-18T11:34:27.598Z,10.05
2018-10-18T11:37:03.546Z,10.60
2018-10-18T11:39:39.776Z,10.63
2018-10-18T11:42:15.791Z,10.50
2018-10-18T11:44:52.192Z,10.60
2018-10-18T11:47:28.506Z,11.93
2018-10-18T11:50:05.005Z,10.23
2018-10-18T11:52:40.914Z,10.77
2018-10-18T11:55:16.983Z,9.90
2018-10-18T11:57:52.989Z,11.33
2018-10-18T12:00:29.159Z,10.67
2018-10-18T12:03:05.439Z,10.10
2018-10-18T12:05:41.794Z,10.18
2018-10-18T12:08:18.198Z,11.25
2018-10-18T12:10:54.654Z,10.72
2018-10-18T12:13:30.798Z,10.83
2018-10-18T12:16:06.634Z,11.17
2018-10-18T12:18:42.514Z,10.50
2018-10-18T12:21:18.977Z,10.35
2018-10-18T12:23:55.288Z,11.27
2018-10-18T12:26:31.557Z,11.50
2018-10-18T12:29:08.874Z,10.67
2018-10-18T12:31:44.983Z,11.22
2018-10-18T12:34:20.815Z,10.93
2018-10-18T12:36:57.557Z,10.70
2018-10-18T12:39:33.877Z,10.98
2018-10-18T12:42:11.045Z,10.25
2018-10-18T12:44:47.639Z,10.90
2018-10-18T12:47:23.991Z,9.97
2018-10-18T12:50:00.054Z,10.63
2018-10-18T12:52:36.136Z,10.95
2018-10-18T12:55:12.415Z,11.27
2018-10-18T12:57:48.787Z,10.80
2018-10-18T13:00:24.877Z,10.82
2018-10-18T13:03:01.093Z,12.30
2018-10-18T13:05:37.321Z,10.40
2018-10-18T13:08:13.750Z,14.58
2018-10-18T13:10:49.661Z,16.67
2018-10-18T13:13:26.138Z,12.15
2018-10-18T13:16:02.207Z,11.10
2018-10-18T13:18:38.435Z,11.18
2018-10-18T13:21:14.797Z,11.53
2018-10-18T13:23:51.725Z,11.60
2018-10-18T13:26:28.232Z,12.13
2018-10-18T13:29:04.945Z,11.48
2018-10-18T13:31:41.435Z,11.95
2018-10-18T13:34:17.827Z,13.97
2018-10-18T13:36:55.485Z,13.75
2018-10-18T13:39:31.743Z,12.95
2018-10-18T13:42:08.339Z,13.80
2018-10-18T13:44:44.841Z,14.00
2018-10-18T13:47:21.177Z,12.77
2018-10-18T13:49:57.229Z,13.93
2018-10-18T13:52:33.319Z,13.83
2018-10-18T13:55:09.836Z,14.40
2018-10-18T13:57:45.853Z,13.57
2018-10-18T14:00:29.227Z,16.77
2018-10-18T14:03:06.022Z,14.10
2018-10-18T14:05:42.127Z,14.58
2018-10-18T14:08:18.941Z,13.77
2018-10-18T14:10:55.679Z,15.73
2018-10-18T14:13:31.732Z,14.80
2018-10-18T14:16:07.862Z,17.50
2018-10-18T14:18:43.841Z,15.60
2018-10-18T14:21:21.328Z,16.80
2018-10-18T14:23:58.853Z,17.10
2018-10-18T14:26:34.645Z,15.10
2018-10-18T14:29:11.053Z,16.10
2018-10-18T14:33:49.016Z,17.30
2018-10-18T14:36:26.190Z,16.77
2018-10-18T14:39:02.545Z,21.85
2018-10-18T14:41:40.201Z,17.35
2018-10-18T14:44:16.385Z,18.17
2018-10-18T14:46:52.561Z,19.52
2018-10-18T14:49:29.065Z,18.65
2018-10-18T14:52:05.329Z,15.10
2018-10-18T14:54:41.704Z,16.62
2018-10-18T14:57:18.523Z,22.50
2018-10-18T14:59:54.573Z,17.57
2018-10-18T15:02:30.861Z,15.58
2018-10-18T15:05:07.430Z,15.03
2018-10-18T15:07:44.447Z,20.70
2018-10-18T15:10:20.195Z,20.67
2018-10-18T15:12:55.728Z,14.20
2018-10-18T15:15:31.981Z,16.07
2018-10-18T15:18:07.383Z,15.03
2018-10-18T15:20:43.187Z,12.93
2018-10-18T15:23:19.730Z,12.63
2018-10-18T15:25:56.784Z,14.73
2018-10-18T15:28:34.580Z,13.73
2018-10-18T15:31:10.871Z,18.23
2018-10-18T15:33:46.885Z,20.27
2018-10-18T15:36:22.844Z,24.17
2018-10-18T15:38:59.325Z,22.10
2018-10-18T15:41:36.593Z,19.45
2018-10-18T15:44:13.843Z,18.87
2018-10-18T15:46:50.289Z,22.10
2018-10-18T15:49:26.828Z,19.10
2018-10-18T15:52:02.879Z,20.60
2018-10-18T15:54:39.055Z,23.40
2018-10-18T15:57:15.911Z,26.60
2018-10-18T15:59:52.090Z,23.35
2018-10-18T16:02:28.047Z,19.37
2018-10-18T16:05:03.837Z,19.90
2018-10-18T16:07:39.900Z,19.65
2018-10-18T16:10:16.233Z,19.67
2018-10-18T16:12:52.235Z,21.23
2018-10-18T16:15:28.217Z,19.93
2018-10-18T16:18:04.676Z,19.10
2018-10-18T16:20:41.074Z,19.73
2018-10-18T16:23:17.816Z,20.72
2018-10-18T16:25:54.308Z,21.07
2018-10-18T16:28:30.124Z,22.33
2018-10-18T16:31:06.696Z,21.70
2018-10-18T16:33:42.900Z,20.30
2018-10-18T16:36:19.072Z,22.30
2018-10-18T16:38:55.197Z,21.57
2018-10-18T16:41:32.073Z,22.13
2018-10-18T16:44:08.184Z,20.62
2018-10-18T16:46:44.637Z,26.90
2018-10-18T16:49:22.069Z,22.07
2018-10-18T16:51:58.755Z,20.40
2018-10-18T16:54:35.272Z,23.23
2018-10-18T16:57:12.600Z,21.10
2018-10-18T16:59:49.068Z,21.95
2018-10-18T17:02:25.174Z,31.10
2018-10-18T17:05:02.306Z,30.03
2018-10-18T17:07:38.885Z,26.68
2018-10-18T17:10:15.549Z,24.50
2018-10-18T17:12:51.883Z,27.27
2018-10-18T17:15:29.081Z,26.97
2018-10-18T17:18:05.265Z,28.00
2018-10-18T17:20:41.368Z,27.80
2018-10-18T17:23:17.928Z,29.85
2018-10-18T17:25:54.140Z,36.35
2018-10-18T17:28:30.284Z,27.90
2018-10-18T17:31:06.927Z,28.70
2018-10-18T17:33:43.185Z,24.70
2018-10-18T17:36:19.171Z,29.47
2018-10-18T17:38:55.897Z,25.08
2018-10-18T17:41:32.063Z,24.90
2018-10-18T17:44:09.146Z,26.50
2018-10-18T17:46:45.669Z,24.70
2018-10-18T17:49:22.125Z,24.70
2018-10-18T17:51:58.719Z,23.60
2018-10-18T17:54:35.312Z,25.73
2018-10-18T17:57:11.912Z,21.67
2018-10-18T17:59:48.169Z,23.65
2018-10-18T18:02:24.909Z,22.30
2018-10-18T18:05:00.957Z,21.70
2018-10-18T18:07:37.398Z,21.60
2018-10-18T18:10:18.334Z,29.70
2018-10-18T18:12:54.262Z,23.30
2018-10-18T18:15:30.571Z,21.27
2018-10-18T18:18:06.952Z,19.82
2018-10-18T18:20:43.202Z,20.17
2018-10-18T18:23:19.891Z,20.47
2018-10-18T18:25:55.937Z,22.27
2018-10-18T18:28:32.046Z,23.83
2018-10-18T18:31:08.541Z,20.20
2018-10-18T18:33:44.899Z,20.92
2018-10-18T18:36:20.906Z,20.62
2018-10-18T18:38:57.156Z,21.12
2018-10-18T18:41:33.308Z,23.70
2018-10-18T18:44:09.528Z,20.57
2018-10-18T18:46:45.714Z,21.50
2018-10-18T18:49:21.954Z,23.38
2018-10-18T18:51:58.290Z,20.92
2018-10-18T18:54:35.295Z,19.27
2018-10-18T18:57:11.359Z,21.93
2018-10-18T18:59:47.621Z,22.45
2018-10-18T19:02:23.926Z,18.57
2018-10-18T19:05:00.297Z,21.95
2018-10-18T19:07:37.115Z,20.27
2018-10-18T19:10:12.967Z,19.10
2018-10-18T19:12:49.212Z,21.15
2018-10-18T19:15:25.250Z,23.32
2018-10-18T19:18:01.426Z,20.40
2018-10-18T19:20:37.218Z,20.70
2018-10-18T19:23:14.976Z,21.97
2018-10-18T19:25:51.284Z,19.57
2018-10-18T19:28:27.422Z,19.57
2018-10-18T19:31:03.953Z,19.20
2018-10-18T19:33:40.131Z,20.73
2018-10-18T19:36:16.165Z,20.13
2018-10-18T19:38:52.370Z,20.53
2018-10-18T19:41:28.760Z,20.65
2018-10-18T19:44:05.884Z,20.97
2018-10-18T19:46:42.520Z,20.40
2018-10-18T19:49:19.726Z,20.40
2018-10-18T19:51:56.086Z,19.77
2018-10-18T19:54:32.028Z,20.20
2018-10-18T19:57:08.120Z,19.62
2018-10-18T19:59:45.059Z,19.30
2018-10-18T20:02:21.405Z,18.07
2018-10-18T20:04:57.137Z,20.63
2018-10-18T20:07:33.348Z,19.77
2018-10-18T20:10:10.853Z,21.87
2018-10-18T20:12:46.947Z,19.85
2018-10-18T20:15:22.741Z,19.00
2018-10-18T20:17:59.149Z,20.50
2018-10-18T20:20:35.129Z,19.10
2018-10-18T20:23:11.628Z,20.27
2018-10-18T20:25:48.328Z,19.25
2018-10-18T20:28:24.928Z,17.92
2018-10-18T20:31:01.338Z,18.20
2018-10-18T20:33:37.907Z,18.20
2018-10-18T20:36:14.190Z,17.37
2018-10-18T20:38:50.469Z,16.90
2018-10-18T20:41:26.978Z,17.35
2018-10-18T20:44:03.311Z,16.30
2018-10-18T20:46:39.441Z,16.77
2018-10-18T20:49:15.975Z,16.50
2018-10-18T20:51:52.147Z,17.32
2018-10-18T20:54:27.862Z,16.95
2018-10-18T20:57:04.143Z,17.42
2018-10-18T20:59:40.737Z,18.10
2018-10-18T21:02:17.156Z,16.50
2018-10-18T21:04:53.331Z,17.67
2018-10-18T21:07:29.317Z,16.48
2018-10-18T21:10:05.312Z,15.13
2018-10-18T21:12:41.099Z,15.97
2018-10-18T21:15:17.268Z,16.10
2018-10-18T21:20:27.895Z,16.05
2018-10-18T21:23:04.173Z,15.38
2018-10-18T21:25:40.401Z,15.38
2018-10-18T21:28:16.991Z,14.87
2018-10-18T21:30:52.853Z,16.03
2018-10-18T21:33:29.002Z,14.83
2018-10-18T21:36:05.165Z,16.20
2018-10-18T21:38:41.357Z,14.47
2018-10-18T21:41:17.379Z,14.10
2018-10-18T21:43:53.404Z,14.63
2018-10-18T21:46:29.161Z,15.30
2018-10-18T21:49:05.878Z,14.10
2018-10-18T21:51:42.368Z,14.53
2018-10-18T21:54:18.484Z,13.50
2018-10-18T21:56:55.045Z,13.38
2018-10-18T21:59:30.989Z,13.80
2018-10-18T22:02:06.614Z,14.57
2018-10-18T22:04:43.696Z,13.80
2018-10-18T22:07:19.940Z,14.43
2018-10-18T22:09:55.987Z,14.07
2018-10-18T22:12:32.239Z,14.40
2018-10-18T22:15:08.995Z,16.07
2018-10-18T22:17:45.644Z,14.05
2018-10-18T22:20:22.002Z,13.40
2018-10-18T22:22:57.959Z,13.08
2018-10-18T22:25:34.686Z,14.18
2018-10-18T22:28:10.843Z,13.32
2018-10-18T22:30:46.762Z,13.70
2018-10-18T22:33:23.297Z,13.73
2018-10-18T22:36:00.133Z,13.38
2018-10-18T22:38:37.188Z,13.80
2018-10-18T22:41:13.344Z,12.80
2018-10-18T22:43:49.293Z,14.33
2018-10-18T22:46:25.757Z,14.07
2018-10-18T22:49:02.910Z,13.20
2018-10-18T22:51:39.903Z,13.50
2018-10-18T22:54:17.140Z,13.80
2018-10-18T22:56:53.389Z,13.15
2018-10-18T22:59:30.701Z,13.63
2018-10-18T23:02:06.797Z,12.90
2018-10-18T23:04:43.102Z,12.33
2018-10-18T23:07:19.203Z,13.00
2018-10-18T23:09:55.303Z,12.87
2018-10-18T23:12:31.794Z,12.53
2018-10-18T23:15:08.663Z,12.58
2018-10-18T23:17:45.043Z,12.90
2018-10-18T23:20:21.488Z,12.60
2018-10-18T23:22:58.054Z,12.50
2018-10-18T23:25:34.379Z,12.82
2018-10-18T23:28:10.237Z,13.00
2018-10-18T23:30:46.810Z,12.07
2018-10-18T23:33:23.279Z,12.80
2018-10-18T23:35:59.890Z,12.30
2018-10-18T23:38:36.163Z,12.70
2018-10-18T23:41:13.145Z,13.50
2018-10-18T23:43:49.336Z,13.10
2018-10-18T23:46:26.061Z,12.90
2018-10-18T23:49:02.549Z,13.23
2018-10-18T23:51:39.245Z,12.63
2018-10-18T23:54:16.253Z,13.50
2018-10-18T23:56:52.314Z,13.10
2018-10-18T23:59:28.860Z,12.30
